Time;durP1;ratioP1;P1;durP2;ratioP2;P2;SDS_P1;SDS_P2;PMS_P1;PMS_P2;Temp;Humidity;BMP_temperature;BMP_pressure;BME280_temperature;BME280_humidity;BME280_pressure;Samples;Min_cycle;Max_cycle;Signal;HPM_P1;HPM_P2
2022/04/23 00:00:41;;;;;;;12.55;11.13;;;9.80;99.90;;;;;;5026356;28;20900;-69
2022/04/23 00:03:09;;;;;;;13.35;12.02;;;9.70;99.90;;;;;;5025729;28;20201;-69
2022/04/23 00:05:36;;;;;;;12.85;11.52;;;9.60;99.90;;;;;;5025881;28;20209;-69
2022/04/23 00:08:03;;;;;;;13.02;10.43;;;9.50;99.90;;;;;;5025280;28;20225;-69
2022/04/23 00:10:30;;;;;;;12.25;10.98;;;9.50;99.90;;;;;;5025741;28;20226;-69
2022/04/23 00:12:57;;;;;;;12.88;11.43;;;9.50;99.90;;;;;;5026126;28;20205;-69
2022/04/23 00:15:25;;;;;;;13.18;11.13;;;9.40;99.90;;;;;;5025115;28;20216;-69
2022/04/23 00:17:52;;;;;;;13.65;11.70;;;9.40;99.90;;;;;;5025593;28;20283;-68
2022/04/23 00:20:23;;;;;;;14.05;11.43;;;9.30;99.90;;;;;;5025481;28;20204;-69
2022/04/23 00:22:49;;;;;;;12.20;11.00;;;9.30;99.90;;;;;;5025274;28;20206;-69
2022/04/23 00:25:16;;;;;;;13.80;12.07;;;9.20;99.90;;;;;;5026255;28;20372;-69
2022/04/23 00:27:43;;;;;;;12.05;10.85;;;9.10;99.90;;;;;;5025505;28;20735;-69
2022/04/23 00:30:10;;;;;;;13.60;12.15;;;9.10;99.90;;;;;;5025539;28;20645;-68
2022/04/23 00:32:37;;;;;;;13.13;11.82;;;9.00;99.90;;;;;;5025196;28;20626;-69
2022/04/23 00:35:05;;;;;;;13.27;11.57;;;8.90;99.90;;;;;;5025571;28;20239;-69
2022/04/23 00:37:34;;;;;;;12.27;11.05;;;8.90;99.90;;;;;;5024900;28;20229;-68
2022/04/23 00:40:00;;;;;;;13.60;12.18;;;8.90;99.90;;;;;;5023186;28;20265;-69
2022/04/23 00:42:28;;;;;;;12.57;11.27;;;8.80;99.90;;;;;;5024694;28;20194;-69
2022/04/23 00:44:55;;;;;;;13.68;12.35;;;8.80;99.90;;;;;;5028398;28;20375;-68
2022/04/23 00:47:22;;;;;;;12.23;11.02;;;8.70;99.90;;;;;;5028372;28;20283;-69
2022/04/23 00:49:50;;;;;;;15.43;12.43;;;8.70;99.90;;;;;;5028023;28;20279;-68
2022/04/23 00:52:16;;;;;;;12.45;11.15;;;8.60;99.90;;;;;;5028231;28;20209;-69
2022/04/23 00:54:45;;;;;;;12.75;11.45;;;8.60;99.90;;;;;;5028947;28;20490;-69
2022/04/23 00:57:12;;;;;;;13.43;12.02;;;8.60;99.90;;;;;;5028492;28;20222;-68
2022/04/23 00:59:38;;;;;;;12.98;11.55;;;8.50;99.90;;;;;;5032406;28;20201;-68
2022/04/23 01:02:05;;;;;;;13.50;11.95;;;8.60;99.90;;;;;;5033434;28;20205;-69
2022/04/23 01:04:32;;;;;;;13.15;11.80;;;8.60;99.90;;;;;;5032315;28;20256;-69
2022/04/23 01:06:59;;;;;;;15.02;11.45;;;8.60;99.90;;;;;;5033657;28;20228;-69
2022/04/23 01:09:27;;;;;;;12.15;10.95;;;8.50;99.90;;;;;;5032986;28;20638;-69
2022/04/23 01:11:58;;;;;;;12.65;11.43;;;8.50;99.90;;;;;;5033783;28;20202;-69
2022/04/23 01:14:24;;;;;;;12.27;11.07;;;8.40;99.90;;;;;;5033290;28;20201;-69
2022/04/23 01:16:51;;;;;;;13.93;12.20;;;8.40;99.90;;;;;;5032930;28;20732;-68
2022/04/23 01:19:18;;;;;;;13.90;12.48;;;8.40;99.90;;;;;;5032941;28;20557;-69
2022/04/23 01:21:46;;;;;;;12.82;10.93;;;8.30;99.90;;;;;;5033220;28;20241;-69
2022/04/23 01:24:14;;;;;;;13.68;12.38;;;8.20;99.90;;;;;;5032945;28;20205;-69
2022/04/23 01:26:41;;;;;;;12.27;11.02;;;8.20;99.90;;;;;;5032670;28;20233;-69
2022/04/23 01:29:08;;;;;;;12.30;11.00;;;8.20;99.90;;;;;;5031859;28;20209;-68
2022/04/23 01:31:34;;;;;;;13.20;11.20;;;8.10;99.90;;;;;;5032434;28;20201;-69
2022/04/23 01:34:01;;;;;;;13.13;11.73;;;8.00;99.90;;;;;;5032867;28;20206;-69
2022/04/23 01:36:28;;;;;;;13.82;11.85;;;8.00;99.90;;;;;;5032274;28;20234;-69
2022/04/23 01:38:56;;;;;;;13.75;11.40;;;8.00;99.90;;;;;;5032102;28;20273;-69
2022/04/23 01:41:23;;;;;;;12.52;11.20;;;8.00;99.90;;;;;;5031855;28;20522;-69
2022/04/23 01:43:50;;;;;;;12.95;11.63;;;7.90;99.90;;;;;;5032668;28;20202;-69
2022/04/23 01:46:16;;;;;;;12.45;11.15;;;8.00;99.90;;;;;;5032294;28;20224;-68
2022/04/23 01:48:43;;;;;;;12.48;10.95;;;7.90;99.90;;;;;;5031870;28;20308;-68
2022/04/23 01:51:10;;;;;;;13.98;12.02;;;7.90;99.90;;;;;;5032303;28;20276;-68
2022/04/23 01:53:37;;;;;;;13.10;11.60;;;7.90;99.90;;;;;;5031878;28;20571;-69
2022/04/23 01:56:05;;;;;;;13.85;11.65;;;7.80;99.90;;;;;;5031211;28;20696;-69
2022/04/23 01:58:32;;;;;;;13.75;12.15;;;7.80;99.90;;;;;;5031429;28;20600;-69
2022/04/23 02:00:59;;;;;;;12.85;11.05;;;7.80;99.90;;;;;;5032515;28;20205;-69
2022/04/23 02:03:28;;;;;;;12.55;11.25;;;7.70;99.90;;;;;;5031967;28;20209;-68
2022/04/23 02:05:55;;;;;;;13.40;10.85;;;7.70;99.90;;;;;;5032089;28;20198;-69
2022/04/23 02:08:22;;;;;;;11.43;10.20;;;7.70;99.90;;;;;;5031199;28;20232;-69
2022/04/23 02:10:49;;;;;;;12.85;10.82;;;7.70;99.90;;;;;;5032211;28;20221;-68
2022/04/23 02:13:17;;;;;;;12.93;11.50;;;7.60;99.90;;;;;;5032191;28;20296;-69
2022/04/23 02:15:44;;;;;;;14.13;12.63;;;7.70;99.90;;;;;;5031647;28;20206;-69
2022/04/23 02:18:11;;;;;;;14.13;12.43;;;7.60;99.90;;;;;;5031569;28;20252;-69
2022/04/23 02:20:38;;;;;;;13.00;11.60;;;7.60;99.90;;;;;;5031873;28;20304;-69
2022/04/23 02:23:05;;;;;;;14.23;12.75;;;7.70;99.90;;;;;;5031968;28;20201;-69
2022/04/23 02:25:34;;;;;;;13.27;11.88;;;7.70;99.90;;;;;;5031671;28;20284;-69
2022/04/23 02:28:01;;;;;;;13.25;11.63;;;7.70;99.90;;;;;;5030862;28;20316;-69
2022/04/23 02:30:30;;;;;;;14.77;11.65;;;7.60;99.90;;;;;;5031500;28;20221;-69
2022/04/23 02:32:57;;;;;;;14.95;12.95;;;7.70;99.90;;;;;;5031889;28;20202;-69
2022/04/23 02:35:24;;;;;;;14.73;12.10;;;7.60;99.90;;;;;;5031488;28;20201;-68
2022/04/23 02:37:55;;;;;;;13.05;11.75;;;7.60;99.90;;;;;;5031519;28;20225;-69
2022/04/23 02:40:21;;;;;;;13.95;12.32;;;7.50;99.90;;;;;;5030818;28;20225;-69
2022/04/23 02:42:50;;;;;;;13.48;12.10;;;7.50;99.90;;;;;;5031575;28;20213;-69
2022/04/23 02:45:20;;;;;;;14.75;12.60;;;7.40;99.90;;;;;;5031385;28;20577;-69
2022/04/23 02:47:49;;;;;;;14.52;13.13;;;7.40;99.90;;;;;;5031276;28;20652;-69
2022/04/23 02:50:24;;;;;;;12.68;11.45;;;7.30;99.90;;;;;;5030908;28;20229;-68
2022/04/23 02:52:51;;;;;;;13.77;12.25;;;7.30;99.90;;;;;;5031051;28;20255;-69
2022/04/23 02:55:18;;;;;;;12.95;11.68;;;7.20;99.90;;;;;;5031171;28;20197;-68
2022/04/23 02:57:44;;;;;;;13.15;11.75;;;7.20;99.90;;;;;;5031049;28;20226;-69
2022/04/23 03:00:12;;;;;;;14.85;13.38;;;7.10;99.90;;;;;;5030840;28;20205;-69
2022/04/23 03:02:39;;;;;;;13.98;12.50;;;7.10;99.90;;;;;;5031035;28;20209;-69
2022/04/23 03:05:11;;;;;;;15.13;12.80;;;7.10;99.90;;;;;;5030807;28;20214;-68
2022/04/23 03:07:39;;;;;;;13.10;11.70;;;7.00;99.90;;;;;;5030463;28;20249;-69
2022/04/23 03:10:08;;;;;;;14.80;12.50;;;6.90;99.90;;;;;;5030496;28;20249;-69
2022/04/23 03:12:36;;;;;;;16.90;12.93;;;6.90;99.90;;;;;;5030819;28;20202;-69
2022/04/23 03:15:04;;;;;;;14.63;13.13;;;6.80;99.90;;;;;;5031016;28;20201;-68
2022/04/23 03:17:31;;;;;;;15.23;13.63;;;6.70;99.90;;;;;;5030318;28;20225;-69
2022/04/23 03:19:58;;;;;;;15.18;13.52;;;6.70;99.90;;;;;;5030474;28;20208;-69
2022/04/23 03:22:27;;;;;;;15.32;13.18;;;6.70;99.90;;;;;;5030519;28;20284;-68
2022/04/23 03:24:54;;;;;;;16.77;14.35;;;6.60;99.90;;;;;;5030802;28;20592;-68
2022/04/23 03:27:20;;;;;;;14.02;12.63;;;6.60;99.90;;;;;;5030666;28;20217;-69
2022/04/23 03:29:47;;;;;;;13.95;12.50;;;6.60;99.90;;;;;;5029563;28;20205;-69
2022/04/23 03:32:14;;;;;;;15.88;12.68;;;6.60;99.90;;;;;;5030746;28;20202;-69
2022/04/23 03:34:41;;;;;;;13.75;12.35;;;6.50;99.90;;;;;;5030456;28;20198;-69
2022/04/23 03:37:08;;;;;;;15.55;13.32;;;6.50;99.90;;;;;;5030555;28;20224;-69
2022/04/23 03:39:36;;;;;;;15.38;13.73;;;6.50;99.90;;;;;;5029840;28;20202;-69
2022/04/23 03:42:04;;;;;;;15.63;13.07;;;6.40;99.90;;;;;;5030130;28;20193;-68
2022/04/23 03:44:31;;;;;;;16.23;14.52;;;6.40;99.90;;;;;;5030281;28;20206;-69
2022/04/23 03:46:58;;;;;;;15.70;14.00;;;6.40;99.90;;;;;;5030429;28;20585;-69
2022/04/23 03:49:25;;;;;;;17.70;15.60;;;6.50;99.90;;;;;;5029754;28;20305;-68
2022/04/23 03:51:52;;;;;;;15.95;13.95;;;6.50;99.90;;;;;;5030410;28;20592;-69
2022/04/23 03:54:19;;;;;;;15.77;14.05;;;6.50;99.90;;;;;;5029982;28;20201;-69
2022/04/23 03:56:48;;;;;;;15.80;13.90;;;6.60;99.90;;;;;;5030208;28;20257;-69
2022/04/23 03:59:20;;;;;;;15.75;13.70;;;6.60;99.90;;;;;;5029893;28;20224;-69
2022/04/23 04:01:47;;;;;;;16.35;14.20;;;6.50;99.90;;;;;;5030473;28;20661;-69
2022/04/23 04:04:14;;;;;;;15.90;14.30;;;6.50;99.90;;;;;;5030531;28;20556;-69
2022/04/23 04:06:41;;;;;;;16.38;14.60;;;6.50;99.90;;;;;;5029487;28;20225;-69
2022/04/23 04:09:08;;;;;;;14.27;12.77;;;6.50;99.90;;;;;;5029759;28;20208;-69
2022/04/23 04:14:17;;;;;;;16.27;14.40;;;6.50;99.90;;;;;;5029319;28;20193;-69
2022/04/23 04:16:45;;;;;;;15.68;14.00;;;6.50;99.90;;;;;;5029661;28;20226;-69
2022/04/23 04:19:14;;;;;;;15.60;13.88;;;6.50;99.90;;;;;;5030851;28;20225;-69
2022/04/23 04:21:40;;;;;;;19.05;15.55;;;6.50;99.90;;;;;;5033718;28;20233;-69
2022/04/23 04:24:07;;;;;;;16.70;15.00;;;6.50;99.90;;;;;;5034026;28;20202;-69
2022/04/23 04:26:34;;;;;;;15.90;14.25;;;6.50;99.90;;;;;;5033545;28;20221;-69
2022/04/23 04:29:01;;;;;;;16.75;14.95;;;6.50;99.90;;;;;;5033500;28;20212;-69
2022/04/23 04:34:13;;;;;;;16.05;13.63;;;6.60;99.90;;;;;;5032561;28;20267;-69
2022/04/23 04:36:40;;;;;;;15.60;13.85;;;6.50;99.90;;;;;;5081766;22;20228;-95
2022/04/23 04:39:07;;;;;;;16.45;14.00;;;6.60;99.90;;;;;;5090834;22;20817;-70
2022/04/23 04:41:35;;;;;;;15.38;13.65;;;6.60;99.90;;;;;;5070695;28;20208;-70
2022/04/23 04:44:02;;;;;;;15.18;13.57;;;6.70;99.90;;;;;;5074774;28;20322;-70
2022/04/23 04:46:30;;;;;;;15.57;13.90;;;6.70;99.90;;;;;;5074872;28;20602;-71
2022/04/23 04:48:56;;;;;;;15.77;14.05;;;6.70;99.90;;;;;;5072205;28;20364;-70
2022/04/23 04:51:23;;;;;;;14.88;13.27;;;6.80;99.90;;;;;;5073758;28;20224;-70
2022/04/23 04:53:51;;;;;;;14.05;12.63;;;6.90;99.90;;;;;;5073387;28;20695;-70
2022/04/23 04:56:18;;;;;;;15.77;14.13;;;6.90;99.90;;;;;;5073004;28;20745;-69
2022/04/23 04:58:46;;;;;;;16.70;14.90;;;7.00;99.90;;;;;;5072145;28;20235;-69
2022/04/23 05:01:13;;;;;;;14.55;12.82;;;7.10;99.90;;;;;;5073371;28;20200;-69
2022/04/23 05:03:43;;;;;;;16.38;14.20;;;7.10;99.90;;;;;;5073325;28;20215;-70
2022/04/23 05:06:10;;;;;;;15.35;13.70;;;7.30;99.90;;;;;;5073310;28;20204;-71
2022/04/23 05:08:36;;;;;;;15.55;14.05;;;7.40;99.90;;;;;;5072809;28;20201;-71
2022/04/23 05:11:04;;;;;;;15.60;13.90;;;7.50;99.90;;;;;;5072942;28;20258;-70
2022/04/23 05:13:31;;;;;;;14.65;13.07;;;7.70;99.90;;;;;;5073174;28;20208;-70
2022/04/23 05:15:58;;;;;;;17.05;14.00;;;7.80;99.90;;;;;;5073006;28;20196;-71
2022/04/23 05:18:25;;;;;;;15.75;13.65;;;7.90;99.90;;;;;;5071974;28;20224;-70
2022/04/23 05:20:53;;;;;;;17.15;14.48;;;8.00;99.90;;;;;;5073055;28;20200;-70
2022/04/23 05:23:20;;;;;;;13.82;12.43;;;8.10;99.90;;;;;;5073194;28;20275;-70
2022/04/23 05:25:47;;;;;;;15.57;13.98;;;8.20;99.90;;;;;;5071946;28;20208;-71
2022/04/23 05:28:13;;;;;;;14.60;13.07;;;8.20;99.90;;;;;;5072329;28;20235;-70
2022/04/23 05:30:40;;;;;;;16.13;14.52;;;8.20;99.90;;;;;;5072838;28;20220;-71
2022/04/23 05:33:08;;;;;;;14.55;13.13;;;8.30;99.90;;;;;;5072729;28;20213;-70
2022/04/23 05:35:34;;;;;;;14.32;12.82;;;8.40;99.90;;;;;;5072968;28;20203;-70
2022/04/23 05:38:02;;;;;;;16.48;13.82;;;8.40;99.90;;;;;;5071675;28;20281;-69
2022/04/23 05:40:29;;;;;;;14.45;12.80;;;8.50;99.90;;;;;;5072979;28;20215;-69
2022/04/23 05:42:58;;;;;;;14.93;13.13;;;8.60;99.90;;;;;;5072856;28;20227;-70
2022/04/23 05:45:25;;;;;;;16.80;13.80;;;8.70;99.90;;;;;;5073055;28;20201;-70
2022/04/23 05:47:51;;;;;;;13.95;12.55;;;8.70;99.90;;;;;;5072614;28;20224;-70
2022/04/23 05:50:18;;;;;;;13.70;12.30;;;8.80;99.90;;;;;;5071858;28;20595;-70
2022/04/23 05:52:45;;;;;;;13.40;12.00;;;8.90;99.90;;;;;;5072671;28;20224;-70
2022/04/23 05:55:14;;;;;;;14.00;12.38;;;8.90;99.90;;;;;;5072601;28;20588;-70
2022/04/23 05:57:41;;;;;;;13.80;12.38;;;9.00;99.90;;;;;;5072434;28;20614;-70
2022/04/23 06:00:10;;;;;;;12.38;11.07;;;9.00;99.90;;;;;;5071935;28;20212;-69
2022/04/23 06:02:36;;;;;;;13.55;12.25;;;9.00;99.90;;;;;;5072451;28;20203;-70
2022/04/23 06:05:04;;;;;;;12.55;10.85;;;9.10;99.90;;;;;;5072153;28;20208;-70
2022/04/23 06:07:31;;;;;;;12.82;11.10;;;9.10;99.90;;;;;;5072606;28;20220;-70
2022/04/23 06:09:58;;;;;;;13.52;12.07;;;9.10;99.90;;;;;;5071585;28;20629;-70
2022/04/23 06:12:26;;;;;;;12.77;11.48;;;9.20;99.90;;;;;;5072416;28;20727;-70
2022/04/23 06:14:53;;;;;;;13.60;11.50;;;9.20;99.90;;;;;;5062050;28;20208;-70
2022/04/23 06:17:24;;;;;;;13.82;11.60;;;9.20;99.90;;;;;;5051988;28;20316;-70
2022/04/23 06:19:52;;;;;;;13.45;12.05;;;9.20;99.90;;;;;;5051234;28;20205;-70
2022/04/23 06:22:19;;;;;;;13.00;11.60;;;9.20;99.90;;;;;;5052193;28;20665;-70
2022/04/23 06:24:46;;;;;;;14.02;12.45;;;9.20;99.90;;;;;;5051847;28;20209;-70
2022/04/23 06:27:13;;;;;;;12.73;11.40;;;9.20;99.90;;;;;;5051592;28;20569;-70
2022/04/23 06:29:41;;;;;;;13.15;11.88;;;9.20;99.90;;;;;;5051383;28;20227;-70
2022/04/23 06:32:09;;;;;;;14.38;12.18;;;9.20;99.90;;;;;;5051750;28;20228;-70
2022/04/23 06:34:37;;;;;;;12.20;11.00;;;9.20;99.90;;;;;;5069527;28;20200;-70
2022/04/23 06:37:04;;;;;;;11.40;9.90;;;9.20;99.90;;;;;;5071325;28;20220;-70
2022/04/23 06:39:31;;;;;;;11.52;10.32;;;9.20;99.90;;;;;;5069443;28;20213;-70
2022/04/23 06:41:58;;;;;;;13.07;11.20;;;9.30;99.90;;;;;;5060176;28;20197;-71
2022/04/23 06:44:25;;;;;;;11.85;10.65;;;9.30;99.90;;;;;;5051409;28;20205;-70
2022/04/23 06:46:53;;;;;;;11.70;10.60;;;9.30;99.90;;;;;;5050821;28;20225;-69
2022/04/23 06:49:20;;;;;;;11.95;10.48;;;9.30;99.90;;;;;;5050290;28;20205;-70
2022/04/23 06:51:47;;;;;;;11.48;10.38;;;9.30;99.90;;;;;;5050402;28;20265;-69
2022/04/23 06:54:14;;;;;;;11.10;10.00;;;9.30;99.90;;;;;;5050946;28;20756;-69
2022/04/23 06:56:41;;;;;;;10.80;9.70;;;9.40;99.90;;;;;;5050822;28;20228;-69
2022/04/23 06:59:08;;;;;;;10.30;9.30;;;9.40;99.90;;;;;;5049844;28;20262;-70
2022/04/23 07:01:36;;;;;;;10.73;9.65;;;9.40;99.90;;;;;;5050145;28;20207;-69
2022/04/23 07:04:05;;;;;;;10.27;9.27;;;9.50;99.90;;;;;;5049483;28;20263;-69
2022/04/23 07:06:32;;;;;;;11.10;10.07;;;9.50;99.90;;;;;;5050537;28;20247;-70
2022/04/23 07:08:59;;;;;;;10.38;9.43;;;9.50;99.90;;;;;;5049790;28;20343;-70
2022/04/23 07:11:26;;;;;;;10.13;9.13;;;9.60;99.90;;;;;;5065202;28;20216;-69
2022/04/23 07:13:53;;;;;;;10.32;9.25;;;9.60;99.90;;;;;;5054457;28;20197;-69
2022/04/23 07:16:20;;;;;;;10.20;9.20;;;9.60;99.90;;;;;;5049400;28;20204;-68
2022/04/23 07:18:47;;;;;;;10.55;9.45;;;9.60;99.90;;;;;;5049074;28;20296;-69
2022/04/23 07:21:15;;;;;;;9.95;9.05;;;9.70;99.90;;;;;;5049755;28;20193;-68
2022/04/23 07:26:26;;;;;;;10.15;9.15;;;9.70;99.90;;;;;;5051626;28;20304;-69
2022/04/23 07:28:53;;;;;;;9.63;8.63;;;9.80;99.90;;;;;;5057571;28;20192;-69
2022/04/23 07:31:19;;;;;;;9.73;8.82;;;9.90;99.90;;;;;;5051741;28;20228;-69
2022/04/23 07:39:15;;;;;;;10.45;8.50;;;10.00;99.90;;;;;;5068844;28;20223;-70
2022/04/23 07:41:43;;;;;;;9.38;8.43;;;10.00;99.90;;;;;;5069607;28;20667;-70
2022/04/23 07:44:10;;;;;;;10.35;9.35;;;10.00;99.90;;;;;;5069541;28;20694;-70
2022/04/23 07:46:37;;;;;;;9.27;8.40;;;10.10;99.90;;;;;;5069723;28;20723;-70
2022/04/23 07:49:04;;;;;;;9.55;8.65;;;10.10;99.90;;;;;;5068502;28;20204;-70
2022/04/23 07:51:33;;;;;;;8.88;8.07;;;10.10;99.90;;;;;;5069385;28;20231;-70
2022/04/23 07:54:00;;;;;;;9.35;8.45;;;10.20;99.90;;;;;;5068470;28;20200;-70
2022/04/23 07:56:26;;;;;;;11.10;9.93;;;10.30;99.90;;;;;;5069530;28;20206;-70
2022/04/23 07:58:53;;;;;;;10.98;9.55;;;10.40;99.90;;;;;;5069255;28;20208;-70
2022/04/23 08:01:20;;;;;;;9.23;8.32;;;10.30;99.90;;;;;;5069651;28;20200;-69
2022/04/23 08:03:46;;;;;;;10.40;9.30;;;10.20;99.90;;;;;;5069048;28;20295;-70
2022/04/23 08:06:13;;;;;;;9.82;8.93;;;10.20;99.90;;;;;;5069494;28;20207;-70
2022/04/23 08:08:42;;;;;;;9.45;8.52;;;10.30;99.90;;;;;;5069079;28;20200;-70
2022/04/23 08:11:09;;;;;;;10.63;9.52;;;10.30;99.90;;;;;;5069193;28;20204;-70
2022/04/23 08:13:36;;;;;;;9.80;8.90;;;10.40;99.90;;;;;;5069483;28;20204;-70
2022/04/23 08:16:04;;;;;;;10.52;9.43;;;10.40;99.90;;;;;;5069054;28;21004;-70
2022/04/23 08:18:32;;;;;;;9.95;9.00;;;10.40;99.90;;;;;;5068938;28;20227;-71
2022/04/23 08:20:58;;;;;;;9.32;8.35;;;10.60;99.90;;;;;;5069205;28;20223;-71
2022/04/23 08:23:25;;;;;;;9.02;8.13;;;10.70;99.90;;;;;;5069626;28;20617;-72
2022/04/23 08:25:56;;;;;;;10.27;8.95;;;10.80;99.90;;;;;;5058964;28;20577;-71
2022/04/23 08:31:07;;;;;;;10.15;9.15;;;10.90;99.90;;;;;;5049187;28;20278;-71
2022/04/23 08:36:15;;;;;;;11.18;10.07;;;11.20;99.90;;;;;;5046547;28;20436;-70
2022/04/23 08:38:42;;;;;;;10.00;9.00;;;11.20;99.90;;;;;;5048862;28;20463;-71
2022/04/23 08:41:11;;;;;;;10.05;9.15;;;11.20;99.90;;;;;;5048664;28;20966;-70
2022/04/23 08:43:38;;;;;;;9.65;8.52;;;11.20;99.90;;;;;;5049262;28;20660;-71
2022/04/23 08:46:04;;;;;;;9.85;8.85;;;11.20;99.90;;;;;;5049345;28;20212;-71
2022/04/23 08:48:37;;;;;;;8.65;7.75;;;11.20;99.90;;;;;;5048539;28;20218;-72
2022/04/23 08:51:07;;;;;;;10.05;9.05;;;11.30;99.90;;;;;;5049330;28;20212;-72
2022/04/23 08:53:40;;;;;;;10.15;9.10;;;11.20;99.90;;;;;;5048223;28;20260;-72
2022/04/23 08:56:07;;;;;;;10.07;9.07;;;11.20;99.90;;;;;;5050040;28;20201;-72
2022/04/23 08:58:35;;;;;;;9.30;8.40;;;11.20;99.90;;;;;;5047863;28;20490;-71
2022/04/23 09:01:03;;;;;;;9.93;8.93;;;11.20;99.90;;;;;;5049555;28;20821;-69
2022/04/23 09:03:29;;;;;;;10.13;9.13;;;11.30;99.90;;;;;;5065878;28;20200;-71
2022/04/23 09:05:56;;;;;;;9.20;8.30;;;11.40;99.90;;;;;;5068505;28;20213;-71
2022/04/23 09:08:25;;;;;;;10.57;8.90;;;11.40;99.90;;;;;;5068947;28;20477;-71
2022/04/23 09:10:54;;;;;;;9.70;8.63;;;11.40;99.90;;;;;;5069299;28;20458;-71
2022/04/23 09:13:28;;;;;;;10.33;9.30;;;11.40;99.90;;;;;;5060643;28;20209;-71
2022/04/23 09:24:46;;;;;;;10.40;9.30;;;11.50;99.90;;;;;;5069969;28;20250;-71
2022/04/23 09:27:13;;;;;;;10.00;9.00;;;11.50;99.90;;;;;;5071611;28;20478;-71
2022/04/23 09:29:40;;;;;;;11.38;8.85;;;11.60;99.90;;;;;;5071203;28;20466;-71
2022/04/23 09:32:14;;;;;;;10.63;9.52;;;11.50;99.90;;;;;;5066929;28;20226;-71
2022/04/23 09:34:41;;;;;;;9.40;8.33;;;11.60;99.90;;;;;;5068466;28;20191;-71
2022/04/23 09:37:09;;;;;;;10.60;8.70;;;11.70;99.90;;;;;;5066011;28;21009;-71
2022/04/23 09:39:38;;;;;;;9.43;8.40;;;11.70;99.90;;;;;;5068545;28;20888;-72
2022/04/23 09:42:15;;;;;;;8.10;7.30;;;11.60;99.90;;;;;;5048652;28;20463;-71
2022/04/23 09:44:43;;;;;;;9.18;7.85;;;11.60;99.90;;;;;;5068484;28;20216;-71
2022/04/23 09:47:12;;;;;;;9.70;8.70;;;11.60;99.90;;;;;;5065084;28;20224;-71
2022/04/23 09:49:40;;;;;;;11.37;8.47;;;11.50;99.90;;;;;;5055647;28;20531;-71
2022/04/23 09:52:08;;;;;;;9.40;8.13;;;11.50;99.90;;;;;;5050474;28;21067;-71
2022/04/23 09:54:36;;;;;;;8.70;7.80;;;11.50;99.90;;;;;;5067011;28;20538;-72
2022/04/23 09:57:04;;;;;;;9.97;8.83;;;11.60;99.90;;;;;;5068393;28;20486;-71
2022/04/23 09:59:31;;;;;;;10.30;9.27;;;11.70;99.90;;;;;;5068388;28;20459;-71
2022/04/23 10:01:59;;;;;;;8.90;8.00;;;11.80;99.90;;;;;;5067537;28;21005;-71
2022/04/23 10:04:29;;;;;;;8.70;7.80;;;11.90;99.90;;;;;;5070100;28;20523;-71
2022/04/23 10:06:56;;;;;;;9.87;8.00;;;12.00;99.90;;;;;;5068735;28;20478;-72
2022/04/23 10:09:28;;;;;;;9.47;7.97;;;12.00;99.90;;;;;;5067615;28;20481;-71
2022/04/23 10:12:02;;;;;;;9.50;8.50;;;12.10;99.90;;;;;;5068748;28;20459;-71
2022/04/23 10:14:34;;;;;;;9.27;8.30;;;12.20;99.90;;;;;;5066176;28;20458;-72
2022/04/23 10:17:02;;;;;;;8.67;7.27;;;12.60;99.90;;;;;;5065610;28;21013;-72
2022/04/23 10:19:33;;;;;;;7.60;6.90;;;12.90;99.90;;;;;;5065125;28;20481;-72
2022/04/23 10:22:07;;;;;;;8.80;7.17;;;13.10;99.90;;;;;;5068128;28;20980;-70
2022/04/23 10:24:43;;;;;;;7.50;6.80;;;13.20;99.90;;;;;;5067213;28;20545;-70
2022/04/23 10:27:14;;;;;;;8.60;7.50;;;13.10;99.90;;;;;;5067778;28;20826;-71
2022/04/23 10:29:41;;;;;;;9.40;8.10;;;12.80;99.70;;;;;;5066844;28;20466;-70
2022/04/23 10:32:18;;;;;;;9.83;7.40;;;12.60;99.90;;;;;;5067429;28;20482;-70
2022/04/23 10:34:46;;;;;;;8.50;7.70;;;12.60;99.90;;;;;;5067931;28;20466;-70
2022/04/23 10:37:17;;;;;;;9.87;8.87;;;12.80;99.90;;;;;;5068456;28;20478;-70
2022/04/23 10:39:45;;;;;;;9.83;8.00;;;12.90;99.90;;;;;;5068159;28;20871;-71
2022/04/23 10:42:15;;;;;;;8.90;7.73;;;12.90;99.90;;;;;;5070056;28;20454;-70
2022/04/23 10:44:43;;;;;;;10.30;8.27;;;13.10;99.90;;;;;;5071378;28;20454;-71
2022/04/23 10:47:16;;;;;;;9.03;8.07;;;13.20;99.90;;;;;;5067880;28;21205;-71
2022/04/23 10:49:43;;;;;;;9.70;8.70;;;13.10;99.90;;;;;;5066980;28;20463;-70
2022/04/23 10:52:31;;;;;;;10.83;8.17;;;13.00;99.90;;;;;;5067796;28;20818;-71
2022/04/23 10:55:01;;;;;;;10.40;8.90;;;13.00;99.90;;;;;;5067501;28;20969;-71
2022/04/23 10:57:28;;;;;;;9.77;8.50;;;13.00;99.90;;;;;;5070442;28;20993;-71
2022/04/23 10:59:55;;;;;;;9.53;8.53;;;13.10;99.90;;;;;;5069264;28;20462;-71
2022/04/23 11:02:40;;;;;;;10.10;8.57;;;13.00;99.90;;;;;;5070535;28;20546;-71
2022/04/23 11:14:08;;;;;;;10.57;8.60;;;12.90;99.60;;;;;;5069763;28;20482;-71
2022/04/23 11:16:34;;;;;;;10.37;9.37;;;12.90;99.90;;;;;;5056205;28;20691;-71
2022/04/23 11:19:02;;;;;;;9.43;8.47;;;13.00;99.90;;;;;;5058268;28;20475;-71
2022/04/23 11:21:30;;;;;;;10.90;8.70;;;12.90;99.90;;;;;;5065303;28;20490;-71
2022/04/23 11:23:59;;;;;;;8.77;7.97;;;12.90;99.90;;;;;;5066637;28;20478;-71
2022/04/23 11:26:42;;;;;;;11.43;8.60;;;13.10;99.90;;;;;;5067218;28;20459;-71
2022/04/23 11:29:09;;;;;;;11.77;8.80;;;13.30;99.90;;;;;;5066244;28;20868;-71
2022/04/23 11:31:36;;;;;;;10.33;8.70;;;13.60;99.90;;;;;;5126355;22;20491;-70
2022/04/23 11:34:04;;;;;;;9.97;8.97;;;13.70;99.40;;;;;;5099491;28;20491;-70
2022/04/23 11:36:32;;;;;;;9.70;8.70;;;13.80;99.70;;;;;;5082738;28;20481;-70
2022/04/23 11:39:00;;;;;;;9.37;8.37;;;13.90;99.00;;;;;;5086135;28;20957;-70
2022/04/23 11:41:31;;;;;;;8.80;8.00;;;13.80;98.60;;;;;;5087109;28;20461;-70
2022/04/23 11:44:12;;;;;;;9.53;7.57;;;13.90;99.10;;;;;;5083008;28;20721;-69
2022/04/23 11:46:43;;;;;;;8.40;7.60;;;14.30;99.10;;;;;;5083792;28;20584;-69
2022/04/23 11:49:10;;;;;;;9.00;8.10;;;14.50;98.00;;;;;;5087138;28;20467;-69
2022/04/23 11:51:41;;;;;;;10.37;8.70;;;14.70;97.90;;;;;;5088222;28;20458;-70
2022/04/23 11:54:07;;;;;;;8.60;7.80;;;14.70;97.20;;;;;;5073210;28;20938;-69
2022/04/23 11:56:36;;;;;;;8.83;7.77;;;14.60;97.70;;;;;;5081208;28;20489;-69
2022/04/23 11:59:05;;;;;;;8.70;7.80;;;14.50;97.60;;;;;;5086078;28;20461;-69
2022/04/23 12:01:33;;;;;;;8.87;8.07;;;14.50;98.20;;;;;;5087011;28;20462;-70
2022/04/23 12:04:00;;;;;;;8.80;8.00;;;14.50;97.70;;;;;;5086469;28;20458;-69
2022/04/23 12:06:27;;;;;;;9.17;7.57;;;14.40;97.30;;;;;;5086186;28;21093;-70
2022/04/23 12:09:05;;;;;;;8.43;7.53;;;14.50;98.10;;;;;;5085892;28;20457;-70
2022/04/23 12:11:32;;;;;;;8.40;7.70;;;14.80;98.00;;;;;;5085920;28;20468;-70
2022/04/23 12:14:01;;;;;;;8.97;8.03;;;15.00;98.10;;;;;;5086659;28;21008;-70
2022/04/23 12:16:34;;;;;;;7.27;6.20;;;15.20;97.40;;;;;;5085526;28;20465;-70
2022/04/23 12:19:02;;;;;;;8.37;7.57;;;15.50;96.80;;;;;;5082750;28;20900;-70
2022/04/23 12:21:30;;;;;;;8.30;7.50;;;15.70;97.00;;;;;;5086232;28;20873;-70
2022/04/23 12:23:57;;;;;;;8.83;8.00;;;15.70;96.30;;;;;;5085110;28;20457;-70
2022/04/23 12:26:24;;;;;;;8.67;7.27;;;15.40;96.20;;;;;;5085716;28;20461;-69
2022/04/23 12:43:18;;;;;;;7.73;7.03;;;15.10;97.20;;;;;;5068727;28;20530;-69
2022/04/23 12:45:44;;;;;;;8.83;7.60;;;15.30;96.80;;;;;;5073072;28;20481;-69
2022/04/23 12:48:14;;;;;;;8.87;8.03;;;15.10;96.70;;;;;;5071332;28;20489;-69
2022/04/23 12:50:41;;;;;;;8.30;7.50;;;15.10;96.90;;;;;;5073193;28;20482;-69
2022/04/23 12:53:08;;;;;;;8.60;7.80;;;15.20;96.40;;;;;;5054396;28;20480;-68
2022/04/23 12:55:37;;;;;;;8.90;7.30;;;15.40;96.50;;;;;;5052492;28;20459;-69
2022/04/23 12:58:08;;;;;;;8.23;7.40;;;15.70;96.80;;;;;;5052501;28;20479;-69
2022/04/23 13:00:36;;;;;;;9.27;8.37;;;15.90;96.10;;;;;;5052505;28;20501;-69
2022/04/23 13:03:20;;;;;;;9.30;7.40;;;16.00;95.90;;;;;;5052183;28;20451;-69
2022/04/23 13:05:48;;;;;;;8.47;7.57;;;16.00;96.00;;;;;;5052575;28;20467;-69
2022/04/23 13:11:24;;;;;;;7.77;7.03;;;16.10;96.90;;;;;;5052262;28;20540;-69
2022/04/23 13:13:46;;;;;;;10.53;7.67;;;16.00;96.20;;;;;;5052280;28;20566;-69
2022/04/23 13:16:13;;;;;;;9.83;6.57;;;15.90;96.00;;;;;;5053571;28;20478;-70
2022/04/23 13:18:40;;;;;;;7.50;6.80;;;15.70;96.30;;;;;;5069241;28;20465;-70
2022/04/23 13:21:08;;;;;;;7.27;6.57;;;15.60;96.40;;;;;;5072068;28;20497;-70
2022/04/23 13:23:35;;;;;;;7.67;6.90;;;15.70;97.00;;;;;;5071401;28;20463;-69
2022/04/23 13:26:02;;;;;;;7.30;6.60;;;15.70;96.70;;;;;;5072145;28;20462;-70
2022/04/23 13:28:29;;;;;;;7.20;6.60;;;15.70;96.10;;;;;;5071594;28;20921;-70
2022/04/23 13:30:56;;;;;;;8.73;6.33;;;15.90;97.20;;;;;;5072454;28;20465;-69
2022/04/23 13:33:22;;;;;;;7.30;6.50;;;16.10;96.10;;;;;;5071604;28;20893;-69
2022/04/23 13:35:49;;;;;;;7.53;6.50;;;16.20;96.40;;;;;;5059078;28;20459;-69
2022/04/23 13:38:17;;;;;;;7.00;6.40;;;16.50;96.00;;;;;;5051099;28;20487;-69